WLF1414 LGAV-LCLK
Flight info
| Callsign | WLF1414 |
|---|---|
| Flight time | 1h 21m |
| Altitude | 37000 |
| Route | KEA UL995 RDS UM601 EVENO M601 BONEK |
| Aircraft | B738/M-SDE2E3FGHIRWXY/LB1 |
Departure
| Time | 2026-05-04 22:46 |
|---|---|
| Airport | Athens Eleftherios Venizelos International Airport (LGAV) |
Arrival
| Time | 2026-05-05 00:07 |
|---|---|
| Airport | Larnaca International Airport (LCLK) |
| Time | Latitude | Longitude | Altitude | Speed | Heading |
|---|---|---|---|---|---|
| 2026-05-04 22:16 | 37.93079 | 23.94233 | 300 ft | 0 kts | 37° |
| 2026-05-04 22:37 | 37.93067 | 23.94223 | 300 ft | 4 kts | 37° |
| 2026-05-04 22:37 | 37.93046 | 23.94202 | 303 ft | 4 kts | 37° |
| 2026-05-04 22:38 | 37.93029 | 23.94186 | 300 ft | 4 kts | 45° |
| 2026-05-04 22:38 | 37.93014 | 23.94159 | 301 ft | 4 kts | 77° |
| 2026-05-04 22:38 | 37.93016 | 23.94133 | 300 ft | 2 kts | 127° |
| 2026-05-04 22:38 | 37.93016 | 23.94132 | 300 ft | 0 kts | 127° |
| 2026-05-04 22:40 | 37.93007 | 23.94147 | 301 ft | 4 kts | 126° |
| 2026-05-04 22:41 | 37.92982 | 23.94191 | 300 ft | 8 kts | 128° |
| 2026-05-04 22:41 | 37.92939 | 23.94262 | 301 ft | 12 kts | 128° |
| 2026-05-04 22:41 | 37.92882 | 23.94357 | 301 ft | 15 kts | 127° |
| 2026-05-04 22:41 | 37.92816 | 23.94448 | 301 ft | 14 kts | 158° |
| 2026-05-04 22:42 | 37.92732 | 23.94408 | 302 ft | 13 kts | 222° |
| 2026-05-04 22:42 | 37.92659 | 23.94341 | 303 ft | 13 kts | 214° |
| 2026-05-04 22:42 | 37.92588 | 23.94276 | 303 ft | 12 kts | 217° |
| 2026-05-04 22:42 | 37.92519 | 23.94210 | 303 ft | 12 kts | 218° |
| 2026-05-04 22:43 | 37.92449 | 23.94166 | 305 ft | 11 kts | 175° |
| 2026-05-04 22:43 | 37.92412 | 23.94215 | 303 ft | 0 kts | 94° |
| 2026-05-04 22:43 | 37.92411 | 23.94216 | 303 ft | 1 kts | 94° |
| 2026-05-04 22:44 | 37.92412 | 23.94276 | 306 ft | 12 kts | 87° |
| 2026-05-04 22:44 | 37.92421 | 23.94383 | 310 ft | 11 kts | 65° |
| 2026-05-04 22:44 | 37.92445 | 23.94414 | 308 ft | 0 kts | 37° |
| 2026-05-04 22:44 | 37.92446 | 23.94415 | 308 ft | 0 kts | 37° |
| 2026-05-04 22:45 | 37.92516 | 23.94482 | 307 ft | 41 kts | 37° |
| 2026-05-04 22:45 | 37.92944 | 23.94888 | 296 ft | 111 kts | 37° |
| 2026-05-04 22:46 | 37.93717 | 23.95610 | 362 ft | 158 kts | 38° |
| 2026-05-04 22:46 | 37.94602 | 23.96418 | 1144 ft | 152 kts | 36° |
| 2026-05-04 22:46 | 37.95484 | 23.97252 | 1786 ft | 163 kts | 33° |
| 2026-05-04 22:46 | 37.96426 | 23.98122 | 2227 ft | 178 kts | 31° |
| 2026-05-04 22:47 | 37.97491 | 23.99082 | 2610 ft | 196 kts | 31° |
| 2026-05-04 22:47 | 37.98638 | 24.00131 | 2923 ft | 212 kts | 33° |
| 2026-05-04 22:47 | 37.99904 | 24.01311 | 3040 ft | 240 kts | 34° |
| 2026-05-04 22:47 | 38.01255 | 24.02657 | 3612 ft | 247 kts | 35° |
| 2026-05-04 22:48 | 38.02568 | 24.03968 | 4674 ft | 236 kts | 34° |
| 2026-05-04 22:48 | 38.03874 | 24.05205 | 5320 ft | 244 kts | 32° |
| 2026-05-04 22:48 | 38.05260 | 24.06523 | 5920 ft | 251 kts | 33° |
| 2026-05-04 22:48 | 38.06667 | 24.07884 | 6761 ft | 250 kts | 32° |
| 2026-05-04 22:49 | 38.08013 | 24.09347 | 7363 ft | 264 kts | 44° |
| 2026-05-04 22:49 | 38.08989 | 24.11370 | 8100 ft | 273 kts | 67° |
| 2026-05-04 22:49 | 38.09231 | 24.13773 | 8927 ft | 284 kts | 90° |
| 2026-05-04 22:49 | 38.08818 | 24.16320 | 9397 ft | 303 kts | 107° |
| 2026-05-04 22:50 | 38.07965 | 24.18759 | 10330 ft | 303 kts | 117° |
| 2026-05-04 22:50 | 38.06563 | 24.20826 | 10815 ft | 324 kts | 143° |
| 2026-05-04 22:50 | 38.04407 | 24.21920 | 11001 ft | 349 kts | 172° |
| 2026-05-04 22:50 | 38.01926 | 24.22247 | 11295 ft | 367 kts | 175° |
| 2026-05-04 22:51 | 37.99346 | 24.22534 | 11862 ft | 375 kts | 174° |
| 2026-05-04 22:51 | 37.96737 | 24.22858 | 12612 ft | 379 kts | 173° |
| 2026-05-04 22:51 | 37.94102 | 24.23234 | 13397 ft | 382 kts | 172° |
| 2026-05-04 22:51 | 37.91443 | 24.23654 | 14116 ft | 387 kts | 171° |
| 2026-05-04 22:52 | 37.88759 | 24.24105 | 14818 ft | 391 kts | 171° |
| 2026-05-04 22:52 | 37.86064 | 24.24573 | 15621 ft | 391 kts | 171° |
| 2026-05-04 22:52 | 37.83357 | 24.25048 | 16409 ft | 393 kts | 171° |
| 2026-05-04 22:52 | 37.80636 | 24.25528 | 17138 ft | 397 kts | 171° |
| 2026-05-04 22:53 | 37.77890 | 24.26012 | 17852 ft | 400 kts | 171° |
| 2026-05-04 22:53 | 37.75120 | 24.26499 | 18545 ft | 404 kts | 171° |
| 2026-05-04 22:53 | 37.72327 | 24.26989 | 19162 ft | 407 kts | 171° |
| 2026-05-04 22:53 | 37.69515 | 24.27482 | 19790 ft | 409 kts | 171° |
| 2026-05-04 22:54 | 37.66681 | 24.27979 | 20415 ft | 412 kts | 171° |
| 2026-05-04 22:54 | 37.63834 | 24.28478 | 21025 ft | 414 kts | 171° |
| 2026-05-04 22:54 | 37.60972 | 24.28986 | 21633 ft | 417 kts | 169° |
| 2026-05-04 22:54 | 37.58217 | 24.30114 | 22161 ft | 419 kts | 149° |
| 2026-05-04 22:55 | 37.55946 | 24.32365 | 22760 ft | 417 kts | 131° |
| 2026-05-04 22:55 | 37.54275 | 24.35335 | 23322 ft | 417 kts | 114° |
| 2026-05-04 22:55 | 37.53253 | 24.38759 | 23852 ft | 418 kts | 107° |
| 2026-05-04 22:55 | 37.52360 | 24.42259 | 24256 ft | 422 kts | 105° |
| 2026-05-04 22:56 | 37.51480 | 24.45802 | 24660 ft | 425 kts | 105° |
| 2026-05-04 22:56 | 37.50589 | 24.49371 | 25090 ft | 428 kts | 105° |
| 2026-05-04 22:56 | 37.49682 | 24.52954 | 25510 ft | 431 kts | 106° |
| 2026-05-04 22:56 | 37.48756 | 24.56558 | 25931 ft | 434 kts | 106° |
| 2026-05-04 22:57 | 37.47816 | 24.60176 | 26333 ft | 437 kts | 106° |
| 2026-05-04 22:57 | 37.46862 | 24.63822 | 26732 ft | 440 kts | 106° |
| 2026-05-04 22:57 | 37.45900 | 24.67487 | 27128 ft | 442 kts | 106° |
| 2026-05-04 22:57 | 37.44931 | 24.71168 | 27509 ft | 445 kts | 106° |
| 2026-05-04 22:58 | 37.43955 | 24.74875 | 27879 ft | 448 kts | 106° |
| 2026-05-04 22:58 | 37.42971 | 24.78603 | 28244 ft | 450 kts | 106° |
| 2026-05-04 22:58 | 37.41980 | 24.82358 | 28603 ft | 453 kts | 106° |
| 2026-05-04 22:58 | 37.40997 | 24.86076 | 28928 ft | 455 kts | 106° |
| 2026-05-04 22:59 | 37.39993 | 24.89867 | 29279 ft | 458 kts | 106° |
| 2026-05-04 22:59 | 37.38983 | 24.93676 | 29613 ft | 461 kts | 106° |
| 2026-05-04 22:59 | 37.37969 | 24.97501 | 29943 ft | 463 kts | 106° |
| 2026-05-04 22:59 | 37.36946 | 25.01349 | 30259 ft | 465 kts | 106° |
| 2026-05-04 23:00 | 37.35920 | 25.05202 | 30595 ft | 465 kts | 106° |
| 2026-05-04 23:00 | 37.34892 | 25.09057 | 30892 ft | 466 kts | 106° |
| 2026-05-04 23:00 | 37.33859 | 25.12933 | 31101 ft | 469 kts | 106° |
| 2026-05-04 23:00 | 37.32818 | 25.16832 | 31322 ft | 472 kts | 106° |
| 2026-05-04 23:01 | 37.31773 | 25.20741 | 31615 ft | 473 kts | 106° |
| 2026-05-04 23:01 | 37.30726 | 25.24655 | 31890 ft | 474 kts | 106° |
| 2026-05-04 23:01 | 37.29673 | 25.28586 | 32143 ft | 476 kts | 105° |
| 2026-05-04 23:01 | 37.28614 | 25.32529 | 32411 ft | 477 kts | 105° |
| 2026-05-04 23:02 | 37.27550 | 25.36467 | 32774 ft | 476 kts | 107° |
| 2026-05-04 23:02 | 37.26367 | 25.40353 | 33156 ft | 476 kts | 109° |
| 2026-05-04 23:02 | 37.25088 | 25.44200 | 33349 ft | 479 kts | 110° |
| 2026-05-04 23:02 | 37.23792 | 25.48073 | 33506 ft | 483 kts | 109° |
| 2026-05-04 23:03 | 37.22509 | 25.51970 | 33778 ft | 484 kts | 109° |
| 2026-05-04 23:03 | 37.21219 | 25.55873 | 34069 ft | 484 kts | 109° |
| 2026-05-04 23:03 | 37.19923 | 25.59770 | 34277 ft | 485 kts | 109° |
| 2026-05-04 23:03 | 37.18619 | 25.63681 | 34475 ft | 487 kts | 109° |
| 2026-05-04 23:04 | 37.17316 | 25.67576 | 34952 ft | 480 kts | 110° |
| 2026-05-04 23:04 | 37.16029 | 25.71419 | 35332 ft | 478 kts | 110° |
| 2026-05-04 23:04 | 37.14741 | 25.75267 | 35453 ft | 481 kts | 110° |
| 2026-05-04 23:04 | 37.13440 | 25.79155 | 35551 ft | 485 kts | 110° |
| 2026-05-04 23:05 | 37.12132 | 25.83057 | 35784 ft | 485 kts | 110° |
| 2026-05-04 23:05 | 37.10826 | 25.86948 | 36075 ft | 484 kts | 110° |
| 2026-05-04 23:05 | 37.09521 | 25.90829 | 36326 ft | 484 kts | 110° |
| 2026-05-04 23:05 | 37.08214 | 25.94713 | 36511 ft | 485 kts | 110° |
| 2026-05-04 23:06 | 37.06900 | 25.98616 | 36712 ft | 486 kts | 110° |
| 2026-05-04 23:06 | 37.05585 | 26.02512 | 36945 ft | 486 kts | 110° |
| 2026-05-04 23:06 | 37.04269 | 26.06409 | 37091 ft | 488 kts | 110° |
| 2026-05-04 23:06 | 37.02939 | 26.10337 | 37074 ft | 490 kts | 110° |
| 2026-05-04 23:07 | 37.00283 | 26.18173 | 37074 ft | 489 kts | 111° |
| 2026-05-04 23:07 | 36.97627 | 26.25996 | 37090 ft | 489 kts | 111° |
| 2026-05-04 23:08 | 36.94973 | 26.33826 | 37075 ft | 489 kts | 111° |
| 2026-05-04 23:08 | 36.92319 | 26.41651 | 37066 ft | 489 kts | 111° |
| 2026-05-04 23:09 | 36.89658 | 26.49474 | 37066 ft | 489 kts | 111° |
| 2026-05-04 23:09 | 36.86991 | 26.57276 | 37069 ft | 489 kts | 111° |
| 2026-05-04 23:10 | 36.84314 | 26.65074 | 37059 ft | 489 kts | 111° |
| 2026-05-04 23:10 | 36.81630 | 26.72880 | 37052 ft | 489 kts | 111° |
| 2026-05-04 23:11 | 36.78949 | 26.80676 | 37052 ft | 489 kts | 111° |
| 2026-05-04 23:11 | 36.76267 | 26.88462 | 37061 ft | 489 kts | 111° |
| 2026-05-04 23:12 | 36.73580 | 26.96240 | 37052 ft | 489 kts | 111° |
| 2026-05-04 23:12 | 36.70886 | 27.04020 | 37045 ft | 488 kts | 111° |
| 2026-05-04 23:13 | 36.68193 | 27.11781 | 37048 ft | 488 kts | 111° |
| 2026-05-04 23:13 | 36.65491 | 27.19528 | 37045 ft | 488 kts | 112° |
| 2026-05-04 23:14 | 36.62778 | 27.27271 | 37032 ft | 488 kts | 112° |
| 2026-05-04 23:14 | 36.60079 | 27.34957 | 37036 ft | 487 kts | 112° |
| 2026-05-04 23:15 | 36.57362 | 27.42682 | 37024 ft | 487 kts | 112° |
| 2026-05-04 23:15 | 36.54641 | 27.50399 | 37035 ft | 487 kts | 112° |
| 2026-05-04 23:16 | 36.52436 | 27.56635 | 37024 ft | 487 kts | 112° |
| 2026-05-04 23:16 | 36.49723 | 27.64299 | 37020 ft | 488 kts | 112° |
| 2026-05-04 23:17 | 36.46987 | 27.72009 | 37010 ft | 488 kts | 112° |
| 2026-05-04 23:17 | 36.44239 | 27.79712 | 37009 ft | 488 kts | 112° |
| 2026-05-04 23:18 | 36.41478 | 27.87410 | 37001 ft | 488 kts | 112° |
| 2026-05-04 23:18 | 36.38715 | 27.95103 | 36995 ft | 488 kts | 112° |
| 2026-05-04 23:19 | 36.35947 | 28.02796 | 37010 ft | 488 kts | 112° |
| 2026-05-04 23:19 | 36.33281 | 28.10542 | 37002 ft | 488 kts | 108° |
| 2026-05-04 23:20 | 36.31243 | 28.18552 | 37007 ft | 487 kts | 105° |
| 2026-05-04 23:20 | 36.29291 | 28.26588 | 36994 ft | 487 kts | 105° |
| 2026-05-04 23:21 | 36.27267 | 28.34591 | 36981 ft | 486 kts | 106° |
| 2026-05-04 23:21 | 36.25209 | 28.42583 | 36969 ft | 487 kts | 106° |
| 2026-05-04 23:22 | 36.23238 | 28.50220 | 36979 ft | 487 kts | 106° |
| 2026-05-04 23:22 | 36.21162 | 28.58220 | 36970 ft | 488 kts | 107° |
| 2026-05-04 23:23 | 36.19078 | 28.66222 | 36960 ft | 489 kts | 107° |
| 2026-05-04 23:23 | 36.16986 | 28.74232 | 36964 ft | 490 kts | 107° |
| 2026-05-04 23:24 | 36.14885 | 28.82259 | 36956 ft | 490 kts | 107° |
| 2026-05-04 23:24 | 36.12778 | 28.90284 | 36926 ft | 491 kts | 107° |
| 2026-05-04 23:25 | 36.10664 | 28.98309 | 36938 ft | 491 kts | 107° |
| 2026-05-04 23:25 | 36.08541 | 29.06339 | 36938 ft | 491 kts | 107° |
| 2026-05-04 23:26 | 36.06412 | 29.14368 | 36906 ft | 492 kts | 107° |
| 2026-05-04 23:26 | 36.04278 | 29.22395 | 36917 ft | 491 kts | 107° |
| 2026-05-04 23:27 | 36.02141 | 29.30409 | 36918 ft | 491 kts | 108° |
| 2026-05-04 23:27 | 35.99999 | 29.38422 | 36889 ft | 492 kts | 108° |
| 2026-05-04 23:28 | 35.97849 | 29.46436 | 36892 ft | 491 kts | 108° |
| 2026-05-04 23:28 | 35.95696 | 29.54436 | 36903 ft | 491 kts | 108° |
| 2026-05-04 23:29 | 35.93532 | 29.62442 | 36881 ft | 492 kts | 108° |
| 2026-05-04 23:29 | 35.91379 | 29.70382 | 36880 ft | 492 kts | 108° |
| 2026-05-04 23:30 | 35.89215 | 29.78351 | 36885 ft | 492 kts | 108° |
| 2026-05-04 23:30 | 35.87032 | 29.86360 | 36864 ft | 493 kts | 108° |
| 2026-05-04 23:31 | 35.84841 | 29.94372 | 36863 ft | 493 kts | 108° |
| 2026-05-04 23:31 | 35.82663 | 30.02379 | 36866 ft | 493 kts | 108° |
| 2026-05-04 23:32 | 35.80631 | 30.10429 | 36858 ft | 492 kts | 107° |
| 2026-05-04 23:32 | 35.78651 | 30.18465 | 36858 ft | 493 kts | 107° |
| 2026-05-04 23:33 | 35.76640 | 30.26505 | 36863 ft | 493 kts | 107° |
| 2026-05-04 23:33 | 35.74602 | 30.34566 | 36859 ft | 493 kts | 107° |
| 2026-05-04 23:34 | 35.72559 | 30.42612 | 36861 ft | 493 kts | 108° |
| 2026-05-04 23:34 | 35.70507 | 30.50663 | 36866 ft | 493 kts | 108° |
| 2026-05-04 23:35 | 35.68450 | 30.58719 | 36863 ft | 494 kts | 108° |
| 2026-05-04 23:35 | 35.66385 | 30.66787 | 36865 ft | 495 kts | 108° |
| 2026-05-04 23:36 | 35.64313 | 30.74856 | 36868 ft | 496 kts | 108° |
| 2026-05-04 23:36 | 35.62250 | 30.82871 | 36866 ft | 496 kts | 108° |
| 2026-05-04 23:37 | 35.60174 | 30.90970 | 36868 ft | 497 kts | 108° |
| 2026-05-04 23:37 | 35.58125 | 30.99076 | 36865 ft | 497 kts | 108° |
| 2026-05-04 23:38 | 35.56074 | 31.07176 | 36871 ft | 497 kts | 108° |
| 2026-05-04 23:38 | 35.54008 | 31.15292 | 36868 ft | 498 kts | 108° |
| 2026-05-04 23:39 | 35.51934 | 31.23398 | 36871 ft | 498 kts | 108° |
| 2026-05-04 23:39 | 35.49843 | 31.31552 | 36199 ft | 505 kts | 108° |
| 2026-05-04 23:40 | 35.48790 | 31.35644 | 35610 ft | 502 kts | 108° |
| 2026-05-04 23:40 | 35.47739 | 31.39727 | 34946 ft | 502 kts | 108° |
| 2026-05-04 23:40 | 35.46685 | 31.43815 | 34252 ft | 503 kts | 108° |
| 2026-05-04 23:40 | 35.45628 | 31.47907 | 33460 ft | 503 kts | 108° |
| 2026-05-04 23:41 | 35.44569 | 31.52000 | 32660 ft | 502 kts | 108° |
| 2026-05-04 23:41 | 35.43512 | 31.56077 | 31886 ft | 501 kts | 108° |
| 2026-05-04 23:41 | 35.42456 | 31.60149 | 31105 ft | 501 kts | 108° |
| 2026-05-04 23:41 | 35.41402 | 31.64206 | 30449 ft | 497 kts | 107° |
| 2026-05-04 23:42 | 35.40358 | 31.68218 | 29907 ft | 491 kts | 107° |
| 2026-05-04 23:42 | 35.39324 | 31.72182 | 29238 ft | 485 kts | 107° |
| 2026-05-04 23:42 | 35.38303 | 31.76093 | 28678 ft | 478 kts | 107° |
| 2026-05-04 23:42 | 35.37295 | 31.79946 | 28101 ft | 472 kts | 107° |
| 2026-05-04 23:43 | 35.36301 | 31.83746 | 27540 ft | 466 kts | 108° |
| 2026-05-04 23:43 | 35.35313 | 31.87513 | 26962 ft | 462 kts | 108° |
| 2026-05-04 23:43 | 35.34335 | 31.91237 | 26414 ft | 457 kts | 108° |
| 2026-05-04 23:43 | 35.33365 | 31.94926 | 25871 ft | 453 kts | 108° |
| 2026-05-04 23:44 | 35.32403 | 31.98585 | 25331 ft | 450 kts | 108° |
| 2026-05-04 23:44 | 35.31446 | 32.02215 | 24796 ft | 446 kts | 108° |
| 2026-05-04 23:44 | 35.30493 | 32.05824 | 24254 ft | 444 kts | 108° |
| 2026-05-04 23:44 | 35.29550 | 32.09415 | 23720 ft | 442 kts | 108° |
| 2026-05-04 23:45 | 35.28628 | 32.12943 | 23120 ft | 440 kts | 108° |
| 2026-05-04 23:45 | 35.27688 | 32.16549 | 22536 ft | 437 kts | 108° |
| 2026-05-04 23:45 | 35.26769 | 32.20070 | 22051 ft | 432 kts | 108° |
| 2026-05-04 23:45 | 35.25869 | 32.23516 | 21520 ft | 429 kts | 108° |
| 2026-05-04 23:46 | 35.24962 | 32.26981 | 20989 ft | 426 kts | 108° |
| 2026-05-04 23:46 | 35.24057 | 32.30425 | 20472 ft | 424 kts | 108° |
| 2026-05-04 23:46 | 35.23158 | 32.33847 | 19947 ft | 422 kts | 108° |
| 2026-05-04 23:46 | 35.22261 | 32.37260 | 19427 ft | 420 kts | 108° |
| 2026-05-04 23:47 | 35.21369 | 32.40648 | 18892 ft | 419 kts | 108° |
| 2026-05-04 23:47 | 35.20476 | 32.44033 | 18361 ft | 418 kts | 108° |
| 2026-05-04 23:47 | 35.19583 | 32.47408 | 17784 ft | 416 kts | 108° |
| 2026-05-04 23:47 | 35.18694 | 32.50768 | 17228 ft | 414 kts | 108° |
| 2026-05-04 23:48 | 35.17814 | 32.54093 | 16699 ft | 410 kts | 108° |
| 2026-05-04 23:48 | 35.16937 | 32.57400 | 16184 ft | 407 kts | 108° |
| 2026-05-04 23:48 | 35.16068 | 32.60677 | 15682 ft | 404 kts | 108° |
| 2026-05-04 23:48 | 35.15203 | 32.63934 | 15176 ft | 402 kts | 108° |
| 2026-05-04 23:49 | 35.14341 | 32.67174 | 14676 ft | 399 kts | 109° |
| 2026-05-04 23:49 | 35.13487 | 32.70381 | 14177 ft | 396 kts | 109° |
| 2026-05-04 23:49 | 35.12640 | 32.73559 | 13705 ft | 392 kts | 109° |
| 2026-05-04 23:49 | 35.11796 | 32.76720 | 13130 ft | 391 kts | 109° |
| 2026-05-04 23:50 | 35.10957 | 32.79859 | 12623 ft | 387 kts | 109° |
| 2026-05-04 23:50 | 35.10123 | 32.82975 | 12111 ft | 384 kts | 109° |
| 2026-05-04 23:50 | 35.09298 | 32.86054 | 11636 ft | 380 kts | 109° |
| 2026-05-04 23:50 | 35.08479 | 32.89109 | 11210 ft | 375 kts | 109° |
| 2026-05-04 23:51 | 35.07682 | 32.92079 | 11064 ft | 362 kts | 109° |
| 2026-05-04 23:51 | 35.06901 | 32.94948 | 10848 ft | 352 kts | 110° |
| 2026-05-04 23:51 | 35.06105 | 32.97743 | 10595 ft | 345 kts | 110° |
| 2026-05-04 23:51 | 35.05313 | 33.00476 | 10341 ft | 338 kts | 110° |
| 2026-05-04 23:52 | 35.04537 | 33.03150 | 10094 ft | 331 kts | 110° |
| 2026-05-04 23:52 | 35.03778 | 33.05773 | 9986 ft | 321 kts | 110° |
| 2026-05-04 23:52 | 35.03055 | 33.08285 | 9960 ft | 308 kts | 110° |
| 2026-05-04 23:52 | 35.02348 | 33.10735 | 9508 ft | 311 kts | 110° |
| 2026-05-04 23:53 | 35.01633 | 33.13212 | 9187 ft | 308 kts | 110° |
| 2026-05-04 23:53 | 35.00925 | 33.15664 | 8864 ft | 306 kts | 110° |
| 2026-05-04 23:53 | 35.00220 | 33.18108 | 8526 ft | 305 kts | 110° |
| 2026-05-04 23:53 | 34.99518 | 33.20540 | 8177 ft | 303 kts | 110° |
| 2026-05-04 23:54 | 34.98819 | 33.22959 | 7847 ft | 302 kts | 110° |
| 2026-05-04 23:54 | 34.98120 | 33.25376 | 7506 ft | 301 kts | 110° |
| 2026-05-04 23:54 | 34.97425 | 33.27777 | 7173 ft | 300 kts | 110° |
| 2026-05-04 23:54 | 34.96732 | 33.30169 | 6848 ft | 299 kts | 110° |
| 2026-05-04 23:55 | 34.96042 | 33.32547 | 6521 ft | 297 kts | 110° |
| 2026-05-04 23:55 | 34.95354 | 33.34912 | 6186 ft | 295 kts | 110° |
| 2026-05-04 23:55 | 34.93998 | 33.39575 | 5507 ft | 292 kts | 110° |
| 2026-05-04 23:56 | 34.93311 | 33.41927 | 5180 ft | 290 kts | 110° |
| 2026-05-04 23:56 | 34.92686 | 33.44247 | 4945 ft | 285 kts | 103° |
| 2026-05-04 23:56 | 34.92337 | 33.46554 | 4838 ft | 276 kts | 98° |
| 2026-05-04 23:56 | 34.92071 | 33.48839 | 4694 ft | 270 kts | 97° |
| 2026-05-04 23:57 | 34.91808 | 33.51087 | 4595 ft | 267 kts | 98° |
| 2026-05-04 23:57 | 34.91526 | 33.53354 | 4492 ft | 267 kts | 98° |
| 2026-05-04 23:57 | 34.91244 | 33.55552 | 4371 ft | 259 kts | 98° |
| 2026-05-04 23:57 | 34.90966 | 33.57662 | 4261 ft | 252 kts | 98° |
| 2026-05-04 23:58 | 34.90688 | 33.59739 | 4148 ft | 245 kts | 99° |
| 2026-05-04 23:58 | 34.90418 | 33.61755 | 4050 ft | 237 kts | 98° |
| 2026-05-04 23:58 | 34.90158 | 33.63701 | 3983 ft | 230 kts | 98° |
| 2026-05-04 23:58 | 34.89901 | 33.65618 | 3851 ft | 228 kts | 99° |
| 2026-05-04 23:59 | 34.89644 | 33.67513 | 3739 ft | 225 kts | 98° |
| 2026-05-04 23:59 | 34.89391 | 33.69378 | 3610 ft | 219 kts | 98° |
| 2026-05-04 23:59 | 34.89153 | 33.71162 | 3477 ft | 208 kts | 99° |
| 2026-05-04 23:59 | 34.88921 | 33.72871 | 3377 ft | 202 kts | 99° |
| 2026-05-05 00:00 | 34.88693 | 33.74548 | 3286 ft | 201 kts | 99° |
| 2026-05-05 00:00 | 34.88615 | 33.75116 | 3263 ft | 201 kts | 99° |
| 2026-05-05 00:00 | 34.88379 | 33.77933 | 3086 ft | 202 kts | 84° |
| 2026-05-05 00:00 | 34.88685 | 33.79591 | 2971 ft | 200 kts | 65° |
| 2026-05-05 00:01 | 34.89378 | 33.81018 | 2892 ft | 194 kts | 46° |
| 2026-05-05 00:01 | 34.90362 | 33.82107 | 2786 ft | 191 kts | 30° |
| 2026-05-05 00:01 | 34.91550 | 33.82811 | 2693 ft | 190 kts | 11° |
| 2026-05-05 00:01 | 34.92826 | 33.83092 | 2587 ft | 181 kts | 356° |
| 2026-05-05 00:02 | 34.94029 | 33.82966 | 2477 ft | 168 kts | 341° |
| 2026-05-05 00:02 | 34.95105 | 33.82502 | 2394 ft | 163 kts | 328° |
| 2026-05-05 00:02 | 34.96047 | 33.81756 | 2327 ft | 161 kts | 315° |
| 2026-05-05 00:02 | 34.96809 | 33.80759 | 2238 ft | 160 kts | 303° |
| 2026-05-05 00:03 | 34.97343 | 33.79611 | 2154 ft | 157 kts | 291° |
| 2026-05-05 00:03 | 34.97647 | 33.78338 | 2082 ft | 156 kts | 279° |
| 2026-05-05 00:03 | 34.97702 | 33.77020 | 2005 ft | 156 kts | 268° |
| 2026-05-05 00:03 | 34.97506 | 33.75718 | 1914 ft | 157 kts | 256° |
| 2026-05-05 00:04 | 34.97059 | 33.74484 | 1826 ft | 162 kts | 243° |
| 2026-05-05 00:04 | 34.96326 | 33.73415 | 1699 ft | 167 kts | 228° |
| 2026-05-05 00:04 | 34.95465 | 33.72469 | 1651 ft | 167 kts | 228° |
| 2026-05-05 00:04 | 34.94634 | 33.71506 | 1575 ft | 160 kts | 229° |
| 2026-05-05 00:05 | 34.93853 | 33.70584 | 1348 ft | 153 kts | 228° |
| 2026-05-05 00:05 | 34.93362 | 33.69971 | 1179 ft | 146 kts | 231° |
| 2026-05-05 00:05 | 34.92469 | 33.68808 | 943 ft | 142 kts | 232° |
| 2026-05-05 00:05 | 34.92030 | 33.68201 | 795 ft | 147 kts | 232° |
| 2026-05-05 00:06 | 34.91343 | 33.67249 | 713 ft | 154 kts | 229° |
| 2026-05-05 00:06 | 34.90577 | 33.66333 | 612 ft | 149 kts | 226° |
| 2026-05-05 00:06 | 34.89847 | 33.65441 | 470 ft | 149 kts | 228° |
| 2026-05-05 00:06 | 34.89123 | 33.64534 | 307 ft | 150 kts | 226° |
| 2026-05-05 00:07 | 34.88395 | 33.63637 | 94 ft | 146 kts | 226° |
| 2026-05-05 00:07 | 34.87713 | 33.62796 | 21 ft | 126 kts | 225° |
| 2026-05-05 00:07 | 34.87244 | 33.62232 | 19 ft | 64 kts | 225° |
| 2026-05-05 00:07 | 34.87020 | 33.61936 | 20 ft | 38 kts | 242° |
| 2026-05-05 00:08 | 34.86947 | 33.61684 | 21 ft | 12 kts | 255° |
| 2026-05-05 00:08 | 34.86946 | 33.61678 | 19 ft | 0 kts | 254° |
| 2026-05-05 00:08 | 34.86944 | 33.61668 | 19 ft | 2 kts | 254° |
| 2026-05-05 00:08 | 34.86938 | 33.61646 | 19 ft | 3 kts | 254° |
| 2026-05-05 00:09 | 34.86932 | 33.61619 | 18 ft | 4 kts | 254° |
| 2026-05-05 00:09 | 34.86921 | 33.61568 | 18 ft | 8 kts | 256° |
| 2026-05-05 00:09 | 34.86900 | 33.61477 | 20 ft | 15 kts | 251° |
| 2026-05-05 00:09 | 34.86909 | 33.61351 | 16 ft | 16 kts | 312° |
| 2026-05-05 00:10 | 34.86987 | 33.61254 | 21 ft | 15 kts | 314° |
| 2026-05-05 00:10 | 34.87039 | 33.61182 | 21 ft | 7 kts | 283° |
| 2026-05-05 00:10 | 34.87020 | 33.61140 | 19 ft | 0 kts | 227° |
| 2026-05-05 00:13 | 34.87019 | 33.61139 | 19 ft | 2 kts | 227° |
| 2026-05-05 00:13 | 34.86999 | 33.61114 | 21 ft | 2 kts | 225° |
| 2026-05-05 00:14 | 34.86999 | 33.61113 | 19 ft | 0 kts | 225° |